Terminal Aerodrome Forecast
Issued by NWS Charleston, WV

Current Version | Previous Version | Graphics & Text | Print | Product List | Glossary On
Versions: 1 2 3 4 5 6 7 8 9 10 11 12 13 14 15 16 17 18 19
000
FTUS41 KRLX 190500
TAFPKB
TAF
KPKB 190520Z 1906/2006 VRB03KT P6SM OVC025
     FM191200 00000KT P6SM BKN020
     FM191300 00000KT P6SM BKN025
     FM192000 VRB03KT P6SM SCT030
     FM200300 00000KT P6SM BKN035=

USA.gov is the U.S. government's official web portal to all federal, state and local government web resources and services.